Mid Ohio Valley Regional Airport
KPKB : now visible

Airfield :











YOU CAN JOIN US ON...

 
LOGIN :

Register | Disclaimer

   EN    FR    IT 

 









Legend :    VFR   Marginal VFR   IFR   Intensive IFR   Very Intensive IFR
Visi :
Ceiling :
>= 8 km
>= 3000ft
5 to 8 km
1000 to 3000 ft
1500m to 5 km
500 to 1000 ft
800 to 1500m
200 to 500 ft
< 800m
< 200 ft
Symbols :   Thunderstorms  Fog  Heavy snow  Heavy precipitations  Wind > 20 kt






- Airport Elevation : 858 ft
- IATA code : PKB


KPKB - Mid Ohio Valley Regional

CURRENT METAR :
  • 150653Z AUTO 24007KT 10SM BKN016 OVC029 04/02 A2983 RMK AO2 SLP107 T00390017

EXPIRED METARs :
  • 150642Z AUTO 25007G16KT 10SM SCT015 OVC029 04/02 A2983 RMK AO2 T00390017
  • 150627Z AUTO 24009KT 10SM FEW015 BKN030 OVC055 04/02 A2983 RMK AO2 T00390017
  • 150553Z AUTO 24006KT 10SM FEW015 BKN024 OVC055 04/02 A2981 RMK AO2 SLP100 T00390017 10044 20039 51014
  • 150453Z AUTO 23007KT 10SM FEW013 OVC055 04/02 A2981 RMK AO2 SLP097 T00440022 400560033

TAF KPKB
Valid from the 15 at 06:00 until the 16 at 06:00 UTC


150523Z 1506/1606 25009G17KT P6SM OVC035
FM150730 27008G16KT P6SM BKN021
FM151600 27007KT P6SM OVC021
FM152000 26005KT P6SM BKN040
FM160400 VRB03KT P6SM OVC025



MET'MAP, your aeronautical weather chart ! - Copyright ORBIFLY December 2007 - Disclaimer

ORBIFLY MET'MAP TEAM :

Programming & Development : Alexandra Zaïnal
Concept & original design : Baudouin d'Aumeries
Assistance for programming : Marc-Olivier Méhu
Technical & hardware support : Manuel Goepfert

Contact : metmap@orbifly.com




SOURCES & CREDITS :

   NOAA       Earth
Advisory